Prairie Du Sac, Wisconsin
Current Conditions -  °F | °C
As of 4:35 PM on Thursday 23 Oct 2014 (Local Time) from KC29 Reporting Station
Overcast Overcast  
Wind Chill: 11°   Ceiling: 2100
Heat Index: 11°   Visibility: 10mi
Dew Point: 10°   Wind: 3mph
Humidity: 90%   Direction: 160°SSE
Pressure: 30.04"   Gusts: NA
Location:  43.29°N, 89.72°W
Report Text: KC29 232135Z AUTO 16003KT 10SM OVC021 11/10 A3004 RMK AO1 T01130097
Loading
Personal Weather Stations






























Interactive Weather Map
Tropical Storm Tracking
New forecast layout! Learn more

10-Day Weather Forecast

Advertisements
Track Severe Weather on mobile